No particular awareness of the weather is required.    There are no Weather-warnings


Meteo18 Weather Cam more information Meteo18 Weather Cam


Thunder radar more information blitzortung!


Rain radar more information rain snow radar


Visit our other weather sites:

Template documentation
and downloads

And another site



Weather Underground History page Text

Daily Summary for September 8, 2017 Units:  Both    English   Metric
« Previous Day
Next Day »
Daily Weekly Monthly Yearly Custom
  High: Low: Average:
Temperature: TemperatureC °F /  -17.8 °C 13.9 °F /  -10.1 °C 16.6 °F /  -8.6 °C
Dew Point: DewpointC °F /  -17.8 °C 9.7 °F /  -12.4 °C 12.1 °F /  -11.1 °C
Humidity: Humidity % 67 % 75 %
Wind Speed: WindSpeedKMH mph /  0 km/h - 11.9 mph /  19.2 km/h
Wind Gust: WindSpeedGustKMH mph /  0 km/h - -
Wind:- - SW
Pressure: PressurehPa in /  0 hPa 1004.6 in /  34015.8 hPa -
Precipitation: 0.0 in /  0 mm    
Historical Graphs
 
 
Tabular Data for September 8, 2017
Time Temperature Dew Point Pressure Wind Wind Speed Wind Gust Humidity Rainfall Rate (Hourly)
TemperatureC °F /  -17.8 °C DewpointC °F /  -17.8 °C PressurehPa in /  0 hPa Calm     Humidity % HourlyPrecipMM in /  0 mm
00:02 15.6 °F /  -9.1 °C 10.4 °F /  -12 °C 1017.8 in /  34462.7 hPa SW 3.2 mph /  5.1 km/h 4.8 mph /  7.7 km/h 71 % 0.0 in /  0 mm
00:07 15.6 °F /  -9.1 °C 10.1 °F /  -12.2 °C 1017.8 in /  34462.7 hPa WSW 4.8 mph /  7.7 km/h 6.4 mph /  10.3 km/h 70 % 0.0 in /  0 mm
00:12 15.7 °F /  -9.1 °C 10.2 °F /  -12.1 °C 1017.8 in /  34462.7 hPa WSW 1.6 mph /  2.6 km/h 6.4 mph /  10.3 km/h 70 % 0.0 in /  0 mm
00:17 15.7 °F /  -9.1 °C 10.0 °F /  -12.2 °C 1017.8 in /  34462.7 hPa WSW 1.6 mph /  2.6 km/h 6.4 mph /  10.3 km/h 69 % 0.0 in /  0 mm
00:22 15.7 °F /  -9.1 °C 10.0 °F /  -12.2 °C 1017.8 in /  34462.7 hPa SW 1.6 mph /  2.6 km/h 6.4 mph /  10.3 km/h 69 % 0.0 in /  0 mm
00:32 15.8 °F /  -9 °C 9.9 °F /  -12.3 °C 1017.8 in /  34462.7 hPa Calm   4.8 mph /  7.7 km/h 68 % 0.0 in /  0 mm
00:37 15.8 °F /  -9 °C 9.9 °F /  -12.3 °C 1017.8 in /  34462.7 hPa West 1.6 mph /  2.6 km/h 4.8 mph /  7.7 km/h 68 % 0.0 in /  0 mm
00:42 15.8 °F /  -9 °C 9.7 °F /  -12.4 °C 1017.8 in /  34462.7 hPa SW 6.4 mph /  10.3 km/h 6.4 mph /  10.3 km/h 67 % 0.0 in /  0 mm
00:47 15.9 °F /  -8.9 °C 9.8 °F /  -12.3 °C 1017.5 in /  34452.6 hPa SW 1.6 mph /  2.6 km/h 6.4 mph /  10.3 km/h 67 % 0.0 in /  0 mm
00:52 15.9 °F /  -8.9 °C 10.0 °F /  -12.2 °C 1017.5 in /  34452.6 hPa SSW 1.6 mph /  2.6 km/h 8.0 mph /  12.9 km/h 68 % 0.0 in /  0 mm
00:57 15.7 °F /  -9.1 °C 10.0 °F /  -12.2 °C 1017.5 in /  34452.6 hPa SSW 1.6 mph /  2.6 km/h 8.0 mph /  12.9 km/h 69 % 0.0 in /  0 mm
01:02 15.5 °F /  -9.2 °C 10.1 °F /  -12.2 °C 1017.5 in /  34452.6 hPa SSW 3.2 mph /  5.1 km/h 8.0 mph /  12.9 km/h 70 % 0.0 in /  0 mm
01:07 15.3 °F /  -9.3 °C 10.1 °F /  -12.2 °C 1017.5 in /  34452.6 hPa SSW 3.2 mph /  5.1 km/h 6.4 mph /  10.3 km/h 71 % 0.0 in /  0 mm
01:12 15.3 °F /  -9.3 °C 10.1 °F /  -12.2 °C 1017.5 in /  34452.6 hPa SW 3.2 mph /  5.1 km/h 6.4 mph /  10.3 km/h 71 % 0.0 in /  0 mm
01:17 15.2 °F /  -9.3 °C 10.2 °F /  -12.1 °C 1017.5 in /  34452.6 hPa SW 4.8 mph /  7.7 km/h 8.0 mph /  12.9 km/h 72 % 0.0 in /  0 mm
01:22 15.1 °F /  -9.4 °C 10.1 °F /  -12.2 °C 1017.5 in /  34452.6 hPa SSW 6.4 mph /  10.3 km/h 8.0 mph /  12.9 km/h 72 % 0.0 in /  0 mm
01:27 15.1 °F /  -9.4 °C 10.1 °F /  -12.2 °C 1017.2 in /  34442.4 hPa SSW 4.8 mph /  7.7 km/h 8.0 mph /  12.9 km/h 72 % 0.0 in /  0 mm
01:32 15.1 °F /  -9.4 °C 10.1 °F /  -12.2 °C 1017.2 in /  34442.4 hPa SW 6.4 mph /  10.3 km/h 6.4 mph /  10.3 km/h 72 % 0.0 in /  0 mm
01:42 15.0 °F /  -9.4 °C 10.2 °F /  -12.1 °C 1017.2 in /  34442.4 hPa SW 6.4 mph /  10.3 km/h 9.7 mph /  15.6 km/h 73 % 0.0 in /  0 mm
01:52 14.9 °F /  -9.5 °C 10.1 °F /  -12.2 °C 1016.8 in /  34428.8 hPa SSE 4.8 mph /  7.7 km/h 9.7 mph /  15.6 km/h 73 % 0.0 in /  0 mm
01:57 14.9 °F /  -9.5 °C 10.1 °F /  -12.2 °C 1016.8 in /  34428.8 hPa SSW 1.6 mph /  2.6 km/h 8.0 mph /  12.9 km/h 73 % 0.0 in /  0 mm
02:07 14.9 °F /  -9.5 °C 10.1 °F /  -12.2 °C 1016.8 in /  34428.8 hPa SW 4.8 mph /  7.7 km/h 8.0 mph /  12.9 km/h 73 % 0.0 in /  0 mm
02:12 14.9 °F /  -9.5 °C 10.1 °F /  -12.2 °C 1016.8 in /  34428.8 hPa SSW 4.8 mph /  7.7 km/h 8.0 mph /  12.9 km/h 73 % 0.0 in /  0 mm
02:17 14.9 °F /  -9.5 °C 10.1 °F /  -12.2 °C 1016.8 in /  34428.8 hPa SW 4.8 mph /  7.7 km/h 6.4 mph /  10.3 km/h 73 % 0.0 in /  0 mm
02:22 15.1 °F /  -9.4 °C 10.3 °F /  -12.1 °C 1016.8 in /  34428.8 hPa SW 3.2 mph /  5.1 km/h 9.7 mph /  15.6 km/h 73 % 0.0 in /  0 mm
02:27 15.2 °F /  -9.3 °C 10.4 °F /  -12 °C 1016.8 in /  34428.8 hPa SW 4.8 mph /  7.7 km/h 12.9 mph /  20.8 km/h 73 % 0.0 in /  0 mm
02:32 15.2 °F /  -9.3 °C 10.2 °F /  -12.1 °C 1016.5 in /  34418.7 hPa SW 1.6 mph /  2.6 km/h 12.9 mph /  20.8 km/h 72 % 0.0 in /  0 mm
02:37 15.3 °F /  -9.3 °C 10.5 °F /  -11.9 °C 1016.5 in /  34418.7 hPa SW 4.8 mph /  7.7 km/h 11.3 mph /  18.2 km/h 73 % 0.0 in /  0 mm
02:42 15.3 °F /  -9.3 °C 10.5 °F /  -11.9 °C 1016.5 in /  34418.7 hPa West 1.6 mph /  2.6 km/h 9.7 mph /  15.6 km/h 73 % 0.0 in /  0 mm
02:47 15.3 °F /  -9.3 °C 10.5 °F /  -11.9 °C 1016.5 in /  34418.7 hPa WSW 6.4 mph /  10.3 km/h 9.7 mph /  15.6 km/h 73 % 0.0 in /  0 mm
02:52 15.3 °F /  -9.3 °C 10.5 °F /  -11.9 °C 1016.5 in /  34418.7 hPa WSW 8.0 mph /  12.9 km/h 11.3 mph /  18.2 km/h 73 % 0.0 in /  0 mm
02:57 15.3 °F /  -9.3 °C 10.5 °F /  -11.9 °C 1016.1 in /  34405.1 hPa SW 6.4 mph /  10.3 km/h 11.3 mph /  18.2 km/h 73 % 0.0 in /  0 mm
03:02 15.2 °F /  -9.3 °C 10.6 °F /  -11.9 °C 1016.1 in /  34405.1 hPa WSW 6.4 mph /  10.3 km/h 11.3 mph /  18.2 km/h 74 % 0.0 in /  0 mm
03:12 15.2 °F /  -9.3 °C 10.6 °F /  -11.9 °C 1016.5 in /  34418.7 hPa WSW 4.8 mph /  7.7 km/h 8.0 mph /  12.9 km/h 74 % 0.0 in /  0 mm
03:17 15.2 °F /  -9.3 °C 10.6 °F /  -11.9 °C 1016.5 in /  34418.7 hPa WSW 1.6 mph /  2.6 km/h 8.0 mph /  12.9 km/h 74 % 0.0 in /  0 mm
03:22 15.2 °F /  -9.3 °C 10.8 °F /  -11.8 °C 1016.5 in /  34418.7 hPa WSW 3.2 mph /  5.1 km/h 8.0 mph /  12.9 km/h 75 % 0.0 in /  0 mm
03:27 15.2 °F /  -9.3 °C 10.8 °F /  -11.8 °C 1016.5 in /  34418.7 hPa SW 4.8 mph /  7.7 km/h 8.0 mph /  12.9 km/h 75 % 0.0 in /  0 mm
03:32 15.2 °F /  -9.3 °C 10.8 °F /  -11.8 °C 1016.5 in /  34418.7 hPa WSW 6.4 mph /  10.3 km/h 8.0 mph /  12.9 km/h 75 % 0.0 in /  0 mm
03:37 15.2 °F /  -9.3 °C 10.8 °F /  -11.8 °C 1016.5 in /  34418.7 hPa SW 6.4 mph /  10.3 km/h 9.7 mph /  15.6 km/h 75 % 0.0 in /  0 mm
03:42 15.2 °F /  -9.3 °C 10.8 °F /  -11.8 °C 1016.5 in /  34418.7 hPa SW 4.8 mph /  7.7 km/h 9.7 mph /  15.6 km/h 75 % 0.0 in /  0 mm
03:47 15.2 °F /  -9.3 °C 10.8 °F /  -11.8 °C 1016.5 in /  34418.7 hPa West 1.6 mph /  2.6 km/h 12.9 mph /  20.8 km/h 75 % 0.0 in /  0 mm
03:52 15.2 °F /  -9.3 °C 10.8 °F /  -11.8 °C 1016.5 in /  34418.7 hPa West 3.2 mph /  5.1 km/h 12.9 mph /  20.8 km/h 75 % 0.0 in /  0 mm
03:57 15.2 °F /  -9.3 °C 10.8 °F /  -11.8 °C 1016.5 in /  34418.7 hPa WSW 6.4 mph /  10.3 km/h 12.9 mph /  20.8 km/h 75 % 0.0 in /  0 mm
04:02 15.2 °F /  -9.3 °C 10.8 °F /  -11.8 °C 1016.5 in /  34418.7 hPa WSW 3.2 mph /  5.1 km/h 9.7 mph /  15.6 km/h 75 % 0.0 in /  0 mm
04:07 15.2 °F /  -9.3 °C 10.8 °F /  -11.8 °C 1016.5 in /  34418.7 hPa WSW 3.2 mph /  5.1 km/h 9.7 mph /  15.6 km/h 75 % 0.0 in /  0 mm
04:12 15.2 °F /  -9.3 °C 11.0 °F /  -11.7 °C 1016.5 in /  34418.7 hPa SW 6.4 mph /  10.3 km/h 9.7 mph /  15.6 km/h 76 % 0.0 in /  0 mm
04:17 15.2 °F /  -9.3 °C 11.0 °F /  -11.7 °C 1016.5 in /  34418.7 hPa SW 4.8 mph /  7.7 km/h 11.3 mph /  18.2 km/h 76 % 0.0 in /  0 mm
04:22 15.2 °F /  -9.3 °C 11.0 °F /  -11.7 °C 1016.1 in /  34405.1 hPa WSW 9.7 mph /  15.6 km/h 11.3 mph /  18.2 km/h 76 % 0.0 in /  0 mm
04:27 15.1 °F /  -9.4 °C 10.9 °F /  -11.7 °C 1016.1 in /  34405.1 hPa SW 6.4 mph /  10.3 km/h 11.3 mph /  18.2 km/h 76 % 0.0 in /  0 mm
04:37 15.1 °F /  -9.4 °C 11.1 °F /  -11.6 °C 1016.1 in /  34405.1 hPa SW 8.0 mph /  12.9 km/h 11.3 mph /  18.2 km/h 77 % 0.0 in /  0 mm
04:42 15.1 °F /  -9.4 °C 11.1 °F /  -11.6 °C 1016.1 in /  34405.1 hPa West 4.8 mph /  7.7 km/h 14.5 mph /  23.3 km/h 77 % 0.0 in /  0 mm
04:47 15.1 °F /  -9.4 °C 11.1 °F /  -11.6 °C 1016.1 in /  34405.1 hPa WSW 6.4 mph /  10.3 km/h 14.5 mph /  23.3 km/h 77 % 0.0 in /  0 mm
04:52 15.0 °F /  -9.4 °C 11.0 °F /  -11.7 °C 1016.1 in /  34405.1 hPa SSW 1.6 mph /  2.6 km/h 14.5 mph /  23.3 km/h 77 % 0.0 in /  0 mm
05:02 15.0 °F /  -9.4 °C 11.0 °F /  -11.7 °C 1015.8 in /  34395 hPa WSW 11.3 mph /  18.2 km/h 16.1 mph /  25.9 km/h 77 % 0.0 in /  0 mm
05:22 14.9 °F /  -9.5 °C 10.7 °F /  -11.8 °C 1015.8 in /  34395 hPa SW 8.0 mph /  12.9 km/h 17.7 mph /  28.5 km/h 76 % 0.0 in /  0 mm
05:27 14.9 °F /  -9.5 °C 10.7 °F /  -11.8 °C 1015.8 in /  34395 hPa WSW 9.7 mph /  15.6 km/h 19.3 mph /  31.1 km/h 76 % 0.0 in /  0 mm
05:37 14.8 °F /  -9.6 °C 10.8 °F /  -11.8 °C 1015.8 in /  34395 hPa WSW 3.2 mph /  5.1 km/h 19.3 mph /  31.1 km/h 77 % 0.0 in /  0 mm
05:47 14.8 °F /  -9.6 °C 10.8 °F /  -11.8 °C 1015.5 in /  34384.8 hPa WSW 4.8 mph /  7.7 km/h 14.5 mph /  23.3 km/h 77 % 0.0 in /  0 mm
05:52 14.7 °F /  -9.6 °C 10.7 °F /  -11.8 °C 1015.5 in /  34384.8 hPa SW 8.0 mph /  12.9 km/h 14.5 mph /  23.3 km/h 77 % 0.0 in /  0 mm
05:57 14.7 °F /  -9.6 °C 10.7 °F /  -11.8 °C 1015.5 in /  34384.8 hPa WSW 11.3 mph /  18.2 km/h 17.7 mph /  28.5 km/h 77 % 0.0 in /  0 mm
06:02 14.6 °F /  -9.7 °C 10.6 °F /  -11.9 °C 1015.5 in /  34384.8 hPa SW 11.3 mph /  18.2 km/h 17.7 mph /  28.5 km/h 77 % 0.0 in /  0 mm
06:07 14.6 °F /  -9.7 °C 10.6 °F /  -11.9 °C 1015.5 in /  34384.8 hPa SW 12.9 mph /  20.8 km/h 17.7 mph /  28.5 km/h 77 % 0.0 in /  0 mm
06:12 14.5 °F /  -9.7 °C 10.5 °F /  -11.9 °C 1015.5 in /  34384.8 hPa WSW 6.4 mph /  10.3 km/h 17.7 mph /  28.5 km/h 77 % 0.0 in /  0 mm
06:22 14.4 °F /  -9.8 °C 10.6 °F /  -11.9 °C 1015.5 in /  34384.8 hPa SSW 3.2 mph /  5.1 km/h 20.9 mph /  33.6 km/h 78 % 0.0 in /  0 mm
06:32 14.3 °F /  -9.8 °C 10.5 °F /  -11.9 °C 1015.5 in /  34384.8 hPa SW 8.0 mph /  12.9 km/h 19.3 mph /  31.1 km/h 78 % 0.0 in /  0 mm
06:42 14.3 °F /  -9.8 °C 10.5 °F /  -11.9 °C 1015.5 in /  34384.8 hPa SW 9.7 mph /  15.6 km/h 19.3 mph /  31.1 km/h 78 % 0.0 in /  0 mm
06:47 14.3 °F /  -9.8 °C 10.7 °F /  -11.8 °C 1015.5 in /  34384.8 hPa SW 8.0 mph /  12.9 km/h 17.7 mph /  28.5 km/h 79 % 0.0 in /  0 mm
06:52 14.2 °F /  -9.9 °C 10.6 °F /  -11.9 °C 1015.5 in /  34384.8 hPa SW 11.3 mph /  18.2 km/h 17.7 mph /  28.5 km/h 79 % 0.0 in /  0 mm
07:02 14.2 °F /  -9.9 °C 10.6 °F /  -11.9 °C 1015.5 in /  34384.8 hPa WSW 6.4 mph /  10.3 km/h 17.7 mph /  28.5 km/h 79 % 0.0 in /  0 mm
07:12 14.1 °F /  -9.9 °C 10.7 °F /  -11.8 °C 1015.5 in /  34384.8 hPa SW 8.0 mph /  12.9 km/h 19.3 mph /  31.1 km/h 80 % 0.0 in /  0 mm
07:17 14.1 °F /  -9.9 °C 10.7 °F /  -11.8 °C 1015.5 in /  34384.8 hPa SW 1.6 mph /  2.6 km/h 19.3 mph /  31.1 km/h 80 % 0.0 in /  0 mm
07:22 14.0 °F /  -10 °C 10.8 °F /  -11.8 °C 1015.5 in /  34384.8 hPa SW 6.4 mph /  10.3 km/h 19.3 mph /  31.1 km/h 81 % 0.0 in /  0 mm
07:32 13.9 °F /  -10.1 °C 10.7 °F /  -11.8 °C 1015.1 in /  34371.3 hPa SW 11.3 mph /  18.2 km/h 14.5 mph /  23.3 km/h 81 % 0.0 in /  0 mm
07:42 13.9 °F /  -10.1 °C 10.7 °F /  -11.8 °C 1015.1 in /  34371.3 hPa SW 12.9 mph /  20.8 km/h 19.3 mph /  31.1 km/h 81 % 0.0 in /  0 mm
07:47 13.9 °F /  -10.1 °C 10.7 °F /  -11.8 °C 1015.1 in /  34371.3 hPa SSW 12.9 mph /  20.8 km/h 19.3 mph /  31.1 km/h 81 % 0.0 in /  0 mm
07:52 13.9 °F /  -10.1 °C 10.7 °F /  -11.8 °C 1015.1 in /  34371.3 hPa SW 11.3 mph /  18.2 km/h 17.7 mph /  28.5 km/h 81 % 0.0 in /  0 mm
07:57 13.9 °F /  -10.1 °C 10.7 °F /  -11.8 °C 1015.1 in /  34371.3 hPa SW 11.3 mph /  18.2 km/h 17.7 mph /  28.5 km/h 81 % 0.0 in /  0 mm
08:02 13.9 °F /  -10.1 °C 10.7 °F /  -11.8 °C 1015.1 in /  34371.3 hPa SW 19.3 mph /  31.1 km/h 19.3 mph /  31.1 km/h 81 % 0.0 in /  0 mm
08:07 13.9 °F /  -10.1 °C 10.9 °F /  -11.7 °C 1015.1 in /  34371.3 hPa SW 12.9 mph /  20.8 km/h 20.9 mph /  33.6 km/h 82 % 0.0 in /  0 mm
08:12 13.9 °F /  -10.1 °C 10.9 °F /  -11.7 °C 1015.1 in /  34371.3 hPa SW 8.0 mph /  12.9 km/h 20.9 mph /  33.6 km/h 82 % 0.0 in /  0 mm
08:17 13.9 °F /  -10.1 °C 10.9 °F /  -11.7 °C 1015.1 in /  34371.3 hPa SW 8.0 mph /  12.9 km/h 20.9 mph /  33.6 km/h 82 % 0.0 in /  0 mm
08:22 13.9 °F /  -10.1 °C 10.9 °F /  -11.7 °C 1014.8 in /  34361.1 hPa SW 12.9 mph /  20.8 km/h 16.1 mph /  25.9 km/h 82 % 0.0 in /  0 mm
08:32 14.0 °F /  -10 °C 11.0 °F /  -11.7 °C 1014.8 in /  34361.1 hPa SW 16.1 mph /  25.9 km/h 19.3 mph /  31.1 km/h 82 % 0.0 in /  0 mm
08:37 14.0 °F /  -10 °C 11.0 °F /  -11.7 °C 1014.8 in /  34361.1 hPa SSW 11.3 mph /  18.2 km/h 20.9 mph /  33.6 km/h 82 % 0.0 in /  0 mm
08:42 14.1 °F /  -9.9 °C 11.1 °F /  -11.6 °C 1014.8 in /  34361.1 hPa SW 16.1 mph /  25.9 km/h 20.9 mph /  33.6 km/h 82 % 0.0 in /  0 mm
08:47 14.1 °F /  -9.9 °C 11.1 °F /  -11.6 °C 1014.8 in /  34361.1 hPa South 8.0 mph /  12.9 km/h 20.9 mph /  33.6 km/h 82 % 0.0 in /  0 mm
08:52 14.1 °F /  -9.9 °C 11.1 °F /  -11.6 °C 1014.8 in /  34361.1 hPa SSW 12.9 mph /  20.8 km/h 20.9 mph /  33.6 km/h 82 % 0.0 in /  0 mm
08:57 14.2 °F /  -9.9 °C 11.2 °F /  -11.6 °C 1014.8 in /  34361.1 hPa WSW 14.5 mph /  23.3 km/h 20.9 mph /  33.6 km/h 82 % 0.0 in /  0 mm
09:02 14.2 °F /  -9.9 °C 11.2 °F /  -11.6 °C 1014.4 in /  34347.6 hPa SSW 16.1 mph /  25.9 km/h 22.5 mph /  36.2 km/h 82 % 0.0 in /  0 mm
09:07 14.4 °F /  -9.8 °C 11.4 °F /  -11.4 °C 1014.4 in /  34347.6 hPa SW 9.7 mph /  15.6 km/h 22.5 mph /  36.2 km/h 82 % 0.0 in /  0 mm
09:12 14.6 °F /  -9.7 °C 11.6 °F /  -11.3 °C 1014.4 in /  34347.6 hPa WSW 22.5 mph /  36.2 km/h 22.5 mph /  36.2 km/h 82 % 0.0 in /  0 mm
09:17 14.6 °F /  -9.7 °C 11.6 °F /  -11.3 °C 1014.4 in /  34347.6 hPa SW 17.7 mph /  28.5 km/h 24.1 mph /  38.8 km/h 82 % 0.0 in /  0 mm
09:22 14.7 °F /  -9.6 °C 11.7 °F /  -11.3 °C 1014.4 in /  34347.6 hPa WSW 14.5 mph /  23.3 km/h 24.1 mph /  38.8 km/h 82 % 0.0 in /  0 mm
09:32 14.8 °F /  -9.6 °C 11.6 °F /  -11.3 °C 1014.4 in /  34347.6 hPa WSW 19.3 mph /  31.1 km/h 29.0 mph /  46.7 km/h 81 % 0.0 in /  0 mm
09:37 14.9 °F /  -9.5 °C 11.7 °F /  -11.3 °C 1014.4 in /  34347.6 hPa SW 19.3 mph /  31.1 km/h 29.0 mph /  46.7 km/h 81 % 0.0 in /  0 mm
09:42 14.9 °F /  -9.5 °C 11.7 °F /  -11.3 °C 1014.4 in /  34347.6 hPa SW 16.1 mph /  25.9 km/h 25.7 mph /  41.4 km/h 81 % 0.0 in /  0 mm
09:47 14.9 °F /  -9.5 °C 11.7 °F /  -11.3 °C 1014.4 in /  34347.6 hPa SSW 17.7 mph /  28.5 km/h 25.7 mph /  41.4 km/h 81 % 0.0 in /  0 mm
09:52 14.9 °F /  -9.5 °C 11.7 °F /  -11.3 °C 1014.4 in /  34347.6 hPa SW 17.7 mph /  28.5 km/h 27.4 mph /  44.1 km/h 81 % 0.0 in /  0 mm
09:57 15.1 °F /  -9.4 °C 11.7 °F /  -11.3 °C 1014.4 in /  34347.6 hPa SW 14.5 mph /  23.3 km/h 27.4 mph /  44.1 km/h 80 % 0.0 in /  0 mm
10:02 15.2 °F /  -9.3 °C 11.8 °F /  -11.2 °C 1014.4 in /  34347.6 hPa South 9.7 mph /  15.6 km/h 25.7 mph /  41.4 km/h 80 % 0.0 in /  0 mm
10:12 15.3 °F /  -9.3 °C 11.7 °F /  -11.3 °C 1014.4 in /  34347.6 hPa SSW 9.7 mph /  15.6 km/h 24.1 mph /  38.8 km/h 79 % 0.0 in /  0 mm
10:17 15.5 °F /  -9.2 °C 11.9 °F /  -11.2 °C 1014.4 in /  34347.6 hPa SSW 8.0 mph /  12.9 km/h 24.1 mph /  38.8 km/h 79 % 0.0 in /  0 mm
10:22 15.6 °F /  -9.1 °C 11.8 °F /  -11.2 °C 1014.4 in /  34347.6 hPa WSW 11.3 mph /  18.2 km/h 24.1 mph /  38.8 km/h 78 % 0.0 in /  0 mm
10:27 15.7 °F /  -9.1 °C 11.9 °F /  -11.2 °C 1014.8 in /  34361.1 hPa SSW 11.3 mph /  18.2 km/h 24.1 mph /  38.8 km/h 78 % 0.0 in /  0 mm
10:32 15.7 °F /  -9.1 °C 11.9 °F /  -11.2 °C 1014.4 in /  34347.6 hPa SW 16.1 mph /  25.9 km/h 24.1 mph /  38.8 km/h 78 % 0.0 in /  0 mm
10:37 15.7 °F /  -9.1 °C 11.9 °F /  -11.2 °C 1014.4 in /  34347.6 hPa WSW 11.3 mph /  18.2 km/h 32.2 mph /  51.8 km/h 78 % 0.0 in /  0 mm
10:47 15.8 °F /  -9 °C 11.8 °F /  -11.2 °C 1014.4 in /  34347.6 hPa WSW 16.1 mph /  25.9 km/h 32.2 mph /  51.8 km/h 77 % 0.0 in /  0 mm
10:52 16.0 °F /  -8.9 °C 12.0 °F /  -11.1 °C 1014.4 in /  34347.6 hPa SW 22.5 mph /  36.2 km/h 27.4 mph /  44.1 km/h 77 % 0.0 in /  0 mm
11:02 16.3 °F /  -8.7 °C 12.1 °F /  -11.1 °C 1014.4 in /  34347.6 hPa SW 8.0 mph /  12.9 km/h 27.4 mph /  44.1 km/h 76 % 0.0 in /  0 mm
11:07 16.4 °F /  -8.7 °C 12.2 °F /  -11 °C 1014.4 in /  34347.6 hPa WSW 19.3 mph /  31.1 km/h 29.0 mph /  46.7 km/h 76 % 0.0 in /  0 mm
11:12 16.6 °F /  -8.6 °C 12.4 °F /  -10.9 °C 1014.4 in /  34347.6 hPa SW 16.1 mph /  25.9 km/h 29.0 mph /  46.7 km/h 76 % 0.0 in /  0 mm
11:17 16.7 °F /  -8.5 °C 12.2 °F /  -11 °C 1014.4 in /  34347.6 hPa SW 12.9 mph /  20.8 km/h 24.1 mph /  38.8 km/h 75 % 0.0 in /  0 mm
11:22 16.8 °F /  -8.4 °C 12.1 °F /  -11.1 °C 1014.4 in /  34347.6 hPa SW 22.5 mph /  36.2 km/h 25.7 mph /  41.4 km/h 74 % 0.0 in /  0 mm
11:32 16.8 °F /  -8.4 °C 12.3 °F /  -10.9 °C 1014.1 in /  34337.4 hPa WSW 12.9 mph /  20.8 km/h 29.0 mph /  46.7 km/h 75 % 0.0 in /  0 mm
11:37 16.9 °F /  -8.4 °C 12.4 °F /  -10.9 °C 1014.1 in /  34337.4 hPa WSW 16.1 mph /  25.9 km/h 29.0 mph /  46.7 km/h 75 % 0.0 in /  0 mm
11:42 16.9 °F /  -8.4 °C 12.2 °F /  -11 °C 1014.1 in /  34337.4 hPa West 12.9 mph /  20.8 km/h 29.0 mph /  46.7 km/h 74 % 0.0 in /  0 mm
11:52 16.7 °F /  -8.5 °C 12.4 °F /  -10.9 °C 1013.8 in /  34327.3 hPa West 12.9 mph /  20.8 km/h 25.7 mph /  41.4 km/h 76 % 0.0 in /  0 mm
11:57 16.7 °F /  -8.5 °C 12.4 °F /  -10.9 °C 1014.1 in /  34337.4 hPa SW 16.1 mph /  25.9 km/h 25.7 mph /  41.4 km/h 76 % 0.0 in /  0 mm
12:02 16.6 °F /  -8.6 °C 12.6 °F /  -10.8 °C 1013.8 in /  34327.3 hPa SSW 9.7 mph /  15.6 km/h 25.7 mph /  41.4 km/h 77 % 0.0 in /  0 mm
12:07 16.7 °F /  -8.5 °C 12.6 °F /  -10.8 °C 1013.8 in /  34327.3 hPa SW 29.0 mph /  46.7 km/h 29.0 mph /  46.7 km/h 77 % 0.0 in /  0 mm
12:12 16.9 °F /  -8.4 °C 12.6 °F /  -10.8 °C 1013.8 in /  34327.3 hPa SSW 16.1 mph /  25.9 km/h 32.2 mph /  51.8 km/h 76 % 0.0 in /  0 mm
12:17 16.7 °F /  -8.5 °C 12.6 °F /  -10.8 °C 1013.8 in /  34327.3 hPa SW 22.5 mph /  36.2 km/h 32.2 mph /  51.8 km/h 77 % 0.0 in /  0 mm
12:22 16.6 °F /  -8.6 °C 12.9 °F /  -10.6 °C 1013.8 in /  34327.3 hPa WSW 11.3 mph /  18.2 km/h 32.2 mph /  51.8 km/h 79 % 0.0 in /  0 mm
12:32 16.8 °F /  -8.4 °C 13.1 °F /  -10.5 °C 1013.4 in /  34313.7 hPa South 8.0 mph /  12.9 km/h 30.6 mph /  49.2 km/h 79 % 0.0 in /  0 mm
12:42 17.4 °F /  -8.1 °C 13.1 °F /  -10.5 °C 1013.1 in /  34303.6 hPa SW 11.3 mph /  18.2 km/h 25.7 mph /  41.4 km/h 76 % 0.0 in /  0 mm
12:47 17.7 °F /  -7.9 °C 13.2 °F /  -10.4 °C 1013.1 in /  34303.6 hPa SW 14.5 mph /  23.3 km/h 30.6 mph /  49.2 km/h 75 % 0.0 in /  0 mm
12:52 17.7 °F /  -7.9 °C 13.0 °F /  -10.6 °C 1013.1 in /  34303.6 hPa SW 9.7 mph /  15.6 km/h 30.6 mph /  49.2 km/h 74 % 0.0 in /  0 mm
12:57 17.6 °F /  -8 °C 13.3 °F /  -10.4 °C 1013.1 in /  34303.6 hPa South 24.1 mph /  38.8 km/h 30.6 mph /  49.2 km/h 76 % 0.0 in /  0 mm
13:02 17.4 °F /  -8.1 °C 13.1 °F /  -10.5 °C 1013.1 in /  34303.6 hPa South 14.5 mph /  23.3 km/h 27.4 mph /  44.1 km/h 76 % 0.0 in /  0 mm
13:07 17.3 °F /  -8.2 °C 13.2 °F /  -10.4 °C 1012.8 in /  34293.4 hPa SSW 14.5 mph /  23.3 km/h 32.2 mph /  51.8 km/h 77 % 0.0 in /  0 mm
13:12 17.4 °F /  -8.1 °C 13.1 °F /  -10.5 °C 1012.8 in /  34293.4 hPa SW 9.7 mph /  15.6 km/h 32.2 mph /  51.8 km/h 76 % 0.0 in /  0 mm
13:17 17.6 °F /  -8 °C 13.1 °F /  -10.5 °C 1012.8 in /  34293.4 hPa SW 6.4 mph /  10.3 km/h 32.2 mph /  51.8 km/h 75 % 0.0 in /  0 mm
13:22 17.7 °F /  -7.9 °C 13.0 °F /  -10.6 °C 1012.8 in /  34293.4 hPa SW 8.0 mph /  12.9 km/h 25.7 mph /  41.4 km/h 74 % 0.0 in /  0 mm
13:27 18.0 °F /  -7.8 °C 13.1 °F /  -10.5 °C 1012.4 in /  34279.9 hPa SW 6.4 mph /  10.3 km/h 22.5 mph /  36.2 km/h 73 % 0.0 in /  0 mm
13:32 18.1 °F /  -7.7 °C 13.0 °F /  -10.6 °C 1012.4 in /  34279.9 hPa SW 4.8 mph /  7.7 km/h 22.5 mph /  36.2 km/h 72 % 0.0 in /  0 mm
13:37 18.1 °F /  -7.7 °C 13.0 °F /  -10.6 °C 1012.8 in /  34293.4 hPa WSW 12.9 mph /  20.8 km/h 24.1 mph /  38.8 km/h 72 % 0.0 in /  0 mm
13:42 17.9 °F /  -7.8 °C 13.0 °F /  -10.6 °C 1012.4 in /  34279.9 hPa WSW 16.1 mph /  25.9 km/h 24.1 mph /  38.8 km/h 73 % 0.0 in /  0 mm
13:47 17.7 °F /  -7.9 °C 13.0 °F /  -10.6 °C 1012.8 in /  34293.4 hPa SW 29.0 mph /  46.7 km/h 29.0 mph /  46.7 km/h 74 % 0.0 in /  0 mm
13:52 17.2 °F /  -8.2 °C 13.3 °F /  -10.4 °C 1012.8 in /  34293.4 hPa West 14.5 mph /  23.3 km/h 30.6 mph /  49.2 km/h 78 % 0.0 in /  0 mm
13:57 16.8 °F /  -8.4 °C 13.7 °F /  -10.2 °C 1012.8 in /  34293.4 hPa WSW 19.3 mph /  31.1 km/h 30.6 mph /  49.2 km/h 82 % 0.0 in /  0 mm
14:02 16.6 °F /  -8.6 °C 14.1 °F /  -9.9 °C 1012.8 in /  34293.4 hPa WSW 16.1 mph /  25.9 km/h 29.0 mph /  46.7 km/h 85 % 0.0 in /  0 mm
14:07 16.7 °F /  -8.5 °C 14.0 °F /  -10 °C 1012.8 in /  34293.4 hPa West 6.4 mph /  10.3 km/h 27.4 mph /  44.1 km/h 84 % 0.0 in /  0 mm
14:12 16.8 °F /  -8.4 °C 13.7 °F /  -10.2 °C 1012.8 in /  34293.4 hPa West 9.7 mph /  15.6 km/h 24.1 mph /  38.8 km/h 82 % 0.0 in /  0 mm
14:17 17.1 °F /  -8.3 °C 14.0 °F /  -10 °C 1012.4 in /  34279.9 hPa West 6.4 mph /  10.3 km/h 24.1 mph /  38.8 km/h 82 % 0.0 in /  0 mm
14:22 17.3 °F /  -8.2 °C 13.8 °F /  -10.1 °C 1012.4 in /  34279.9 hPa WSW 16.1 mph /  25.9 km/h 22.5 mph /  36.2 km/h 80 % 0.0 in /  0 mm
14:27 17.4 °F /  -8.1 °C 13.9 °F /  -10.1 °C 1012.1 in /  34269.7 hPa SSW 3.2 mph /  5.1 km/h 24.1 mph /  38.8 km/h 80 % 0.0 in /  0 mm
14:32 17.5 °F /  -8.1 °C 13.8 °F /  -10.1 °C 1012.1 in /  34269.7 hPa SW 4.8 mph /  7.7 km/h 24.1 mph /  38.8 km/h 79 % 0.0 in /  0 mm
14:37 17.7 °F /  -7.9 °C 13.8 °F /  -10.1 °C 1011.7 in /  34256.2 hPa SW 12.9 mph /  20.8 km/h 19.3 mph /  31.1 km/h 78 % 0.0 in /  0 mm
14:42 17.9 °F /  -7.8 °C 13.6 °F /  -10.2 °C 1011.7 in /  34256.2 hPa West 22.5 mph /  36.2 km/h 22.5 mph /  36.2 km/h 76 % 0.0 in /  0 mm
14:47 17.9 °F /  -7.8 °C 13.6 °F /  -10.2 °C 1011.7 in /  34256.2 hPa SW 6.4 mph /  10.3 km/h 27.4 mph /  44.1 km/h 76 % 0.0 in /  0 mm
14:52 18.2 °F /  -7.7 °C 13.5 °F /  -10.3 °C 1011.7 in /  34256.2 hPa SW 11.3 mph /  18.2 km/h 27.4 mph /  44.1 km/h 74 % 0.0 in /  0 mm
14:57 18.6 °F /  -7.4 °C 13.7 °F /  -10.2 °C 1011.7 in /  34256.2 hPa ENE 9.7 mph /  15.6 km/h 27.4 mph /  44.1 km/h 73 % 0.0 in /  0 mm
15:02 18.8 °F /  -7.3 °C 13.6 °F /  -10.2 °C 1011.4 in /  34246 hPa SSW 11.3 mph /  18.2 km/h 20.9 mph /  33.6 km/h 72 % 0.0 in /  0 mm
15:07 18.7 °F /  -7.4 °C 13.3 °F /  -10.4 °C 1011.4 in /  34246 hPa WSW 19.3 mph /  31.1 km/h 22.5 mph /  36.2 km/h 71 % 0.0 in /  0 mm
15:12 18.8 °F /  -7.3 °C 13.4 °F /  -10.3 °C 1011.4 in /  34246 hPa WSW 11.3 mph /  18.2 km/h 24.1 mph /  38.8 km/h 71 % 0.0 in /  0 mm
15:17 18.8 °F /  -7.3 °C 13.4 °F /  -10.3 °C 1011.1 in /  34235.8 hPa South 16.1 mph /  25.9 km/h 24.1 mph /  38.8 km/h 71 % 0.0 in /  0 mm
15:22 18.7 °F /  -7.4 °C 13.5 °F /  -10.3 °C 1011.1 in /  34235.8 hPa SW 12.9 mph /  20.8 km/h 29.0 mph /  46.7 km/h 72 % 0.0 in /  0 mm
15:27 18.4 °F /  -7.6 °C 13.5 °F /  -10.3 °C 1011.1 in /  34235.8 hPa WNW 16.1 mph /  25.9 km/h 29.0 mph /  46.7 km/h 73 % 0.0 in /  0 mm
15:32 18.4 °F /  -7.6 °C 13.5 °F /  -10.3 °C 1011.1 in /  34235.8 hPa SSW 16.1 mph /  25.9 km/h 32.2 mph /  51.8 km/h 73 % 0.0 in /  0 mm
15:37 18.6 °F /  -7.4 °C 13.7 °F /  -10.2 °C 1011.1 in /  34235.8 hPa SW 16.1 mph /  25.9 km/h 32.2 mph /  51.8 km/h 73 % 0.0 in /  0 mm
15:47 18.6 °F /  -7.4 °C 13.5 °F /  -10.3 °C 1011.1 in /  34235.8 hPa SW 9.7 mph /  15.6 km/h 33.8 mph /  54.4 km/h 72 % 0.0 in /  0 mm
15:52 18.8 °F /  -7.3 °C 13.4 °F /  -10.3 °C 1010.7 in /  34222.3 hPa SW 8.0 mph /  12.9 km/h 33.8 mph /  54.4 km/h 71 % 0.0 in /  0 mm
15:57 18.8 °F /  -7.3 °C 13.2 °F /  -10.4 °C 1010.7 in /  34222.3 hPa SW 11.3 mph /  18.2 km/h 33.8 mph /  54.4 km/h 70 % 0.0 in /  0 mm
16:02 18.8 °F /  -7.3 °C 13.6 °F /  -10.2 °C 1010.7 in /  34222.3 hPa WSW 24.1 mph /  38.8 km/h 29.0 mph /  46.7 km/h 72 % 0.0 in /  0 mm
16:07 18.7 °F /  -7.4 °C 13.5 °F /  -10.3 °C 1010.7 in /  34222.3 hPa SW 4.8 mph /  7.7 km/h 29.0 mph /  46.7 km/h 72 % 0.0 in /  0 mm
16:12 18.7 °F /  -7.4 °C 13.5 °F /  -10.3 °C 1010.4 in /  34212.1 hPa SW 6.4 mph /  10.3 km/h 29.0 mph /  46.7 km/h 72 % 0.0 in /  0 mm
16:17 18.8 °F /  -7.3 °C 13.6 °F /  -10.2 °C 1010.4 in /  34212.1 hPa SW 14.5 mph /  23.3 km/h 29.0 mph /  46.7 km/h 72 % 0.0 in /  0 mm
16:22 18.9 °F /  -7.3 °C 13.5 °F /  -10.3 °C 1010.0 in /  34198.6 hPa SSW 14.5 mph /  23.3 km/h 27.4 mph /  44.1 km/h 71 % 0.0 in /  0 mm
16:27 19.1 °F /  -7.2 °C 13.5 °F /  -10.3 °C 1010.0 in /  34198.6 hPa SW 17.7 mph /  28.5 km/h 29.0 mph /  46.7 km/h 70 % 0.0 in /  0 mm
16:32 19.1 °F /  -7.2 °C 13.3 °F /  -10.4 °C 1010.0 in /  34198.6 hPa SW 14.5 mph /  23.3 km/h 29.0 mph /  46.7 km/h 69 % 0.0 in /  0 mm
16:37 19.1 °F /  -7.2 °C 13.5 °F /  -10.3 °C 1010.0 in /  34198.6 hPa WSW 14.5 mph /  23.3 km/h 29.0 mph /  46.7 km/h 70 % 0.0 in /  0 mm
16:42 19.1 °F /  -7.2 °C 13.5 °F /  -10.3 °C 1009.7 in /  34188.4 hPa SW 12.9 mph /  20.8 km/h 27.4 mph /  44.1 km/h 70 % 0.0 in /  0 mm
16:47 19.2 °F /  -7.1 °C 13.6 °F /  -10.2 °C 1009.7 in /  34188.4 hPa SSW 9.7 mph /  15.6 km/h 27.4 mph /  44.1 km/h 70 % 0.0 in /  0 mm
16:52 19.3 °F /  -7.1 °C 13.2 °F /  -10.4 °C 1009.7 in /  34188.4 hPa SW 22.5 mph /  36.2 km/h 27.4 mph /  44.1 km/h 68 % 0.0 in /  0 mm
16:57 19.4 °F /  -7 °C 13.3 °F /  -10.4 °C 1009.7 in /  34188.4 hPa SW 12.9 mph /  20.8 km/h 27.4 mph /  44.1 km/h 68 % 0.0 in /  0 mm
17:02 19.3 °F /  -7.1 °C 13.2 °F /  -10.4 °C 1009.7 in /  34188.4 hPa WSW 9.7 mph /  15.6 km/h 32.2 mph /  51.8 km/h 68 % 0.0 in /  0 mm
17:07 19.2 °F /  -7.1 °C 13.4 °F /  -10.3 °C 1010.0 in /  34198.6 hPa SW 20.9 mph /  33.6 km/h 33.8 mph /  54.4 km/h 69 % 0.0 in /  0 mm
17:12 19.1 °F /  -7.2 °C 13.3 °F /  -10.4 °C 1009.7 in /  34188.4 hPa South 8.0 mph /  12.9 km/h 33.8 mph /  54.4 km/h 69 % 0.0 in /  0 mm
17:17 19.1 °F /  -7.2 °C 13.3 °F /  -10.4 °C 1009.7 in /  34188.4 hPa WSW 6.4 mph /  10.3 km/h 33.8 mph /  54.4 km/h 69 % 0.0 in /  0 mm
17:22 19.2 °F /  -7.1 °C 13.4 °F /  -10.3 °C 1009.7 in /  34188.4 hPa SW 14.5 mph /  23.3 km/h 30.6 mph /  49.2 km/h 69 % 0.0 in /  0 mm
17:27 19.3 °F /  -7.1 °C 13.2 °F /  -10.4 °C 1009.4 in /  34178.3 hPa WSW 9.7 mph /  15.6 km/h 29.0 mph /  46.7 km/h 68 % 0.0 in /  0 mm
17:32 19.5 °F /  -6.9 °C 13.4 °F /  -10.3 °C 1009.4 in /  34178.3 hPa WSW 9.7 mph /  15.6 km/h 29.0 mph /  46.7 km/h 68 % 0.0 in /  0 mm
17:37 19.5 °F /  -6.9 °C 13.2 °F /  -10.4 °C 1009.4 in /  34178.3 hPa WSW 17.7 mph /  28.5 km/h 30.6 mph /  49.2 km/h 67 % 0.0 in /  0 mm
17:42 19.6 °F /  -6.9 °C 13.3 °F /  -10.4 °C 1009.4 in /  34178.3 hPa West 8.0 mph /  12.9 km/h 30.6 mph /  49.2 km/h 67 % 0.0 in /  0 mm
17:47 19.4 °F /  -7 °C 13.3 °F /  -10.4 °C 1009.4 in /  34178.3 hPa SW 19.3 mph /  31.1 km/h 30.6 mph /  49.2 km/h 68 % 0.0 in /  0 mm
17:52 19.4 °F /  -7 °C 13.3 °F /  -10.4 °C 1009.4 in /  34178.3 hPa SW 25.7 mph /  41.4 km/h 30.6 mph /  49.2 km/h 68 % 0.0 in /  0 mm
17:57 19.3 °F /  -7.1 °C 13.5 °F /  -10.3 °C 1009.4 in /  34178.3 hPa SSW 22.5 mph /  36.2 km/h 29.0 mph /  46.7 km/h 69 % 0.0 in /  0 mm
18:02 19.2 °F /  -7.1 °C 13.4 °F /  -10.3 °C 1009.4 in /  34178.3 hPa SW 19.3 mph /  31.1 km/h 29.0 mph /  46.7 km/h 69 % 0.0 in /  0 mm
18:07 19.2 °F /  -7.1 °C 13.4 °F /  -10.3 °C 1009.0 in /  34164.7 hPa SW 20.9 mph /  33.6 km/h 29.0 mph /  46.7 km/h 69 % 0.0 in /  0 mm
18:12 19.2 °F /  -7.1 °C 13.4 °F /  -10.3 °C 1009.0 in /  34164.7 hPa SSW 16.1 mph /  25.9 km/h 29.0 mph /  46.7 km/h 69 % 0.0 in /  0 mm
18:17 19.3 °F /  -7.1 °C 13.2 °F /  -10.4 °C 1008.7 in /  34154.6 hPa South 11.3 mph /  18.2 km/h 29.0 mph /  46.7 km/h 68 % 0.0 in /  0 mm
18:22 19.4 °F /  -7 °C 13.3 °F /  -10.4 °C 1008.7 in /  34154.6 hPa West 12.9 mph /  20.8 km/h 29.0 mph /  46.7 km/h 68 % 0.0 in /  0 mm
18:32 19.4 °F /  -7 °C 13.1 °F /  -10.5 °C 1008.7 in /  34154.6 hPa SSW 14.5 mph /  23.3 km/h 29.0 mph /  46.7 km/h 67 % 0.0 in /  0 mm
18:42 19.4 °F /  -7 °C 13.1 °F /  -10.5 °C 1008.7 in /  34154.6 hPa SW 19.3 mph /  31.1 km/h 29.0 mph /  46.7 km/h 67 % 0.0 in /  0 mm
18:47 19.4 °F /  -7 °C 13.1 °F /  -10.5 °C 1008.7 in /  34154.6 hPa West 8.0 mph /  12.9 km/h 29.0 mph /  46.7 km/h 67 % 0.0 in /  0 mm
18:52 19.4 °F /  -7 °C 13.1 °F /  -10.5 °C 1008.4 in /  34144.4 hPa SW 20.9 mph /  33.6 km/h 29.0 mph /  46.7 km/h 67 % 0.0 in /  0 mm
19:02 19.1 °F /  -7.2 °C 13.3 °F /  -10.4 °C 1008.4 in /  34144.4 hPa SW 12.9 mph /  20.8 km/h 33.8 mph /  54.4 km/h 69 % 0.0 in /  0 mm
19:07 19.0 °F /  -7.2 °C 13.2 °F /  -10.4 °C 1008.4 in /  34144.4 hPa SW 14.5 mph /  23.3 km/h 33.8 mph /  54.4 km/h 69 % 0.0 in /  0 mm
19:12 18.9 °F /  -7.3 °C 13.1 °F /  -10.5 °C 1008.4 in /  34144.4 hPa SSW 11.3 mph /  18.2 km/h 33.8 mph /  54.4 km/h 69 % 0.0 in /  0 mm
19:17 18.9 °F /  -7.3 °C 13.1 °F /  -10.5 °C 1008.4 in /  34144.4 hPa SW 27.4 mph /  44.1 km/h 32.2 mph /  51.8 km/h 69 % 0.0 in /  0 mm
19:22 19.0 °F /  -7.2 °C 13.2 °F /  -10.4 °C 1008.4 in /  34144.4 hPa SW 16.1 mph /  25.9 km/h 30.6 mph /  49.2 km/h 69 % 0.0 in /  0 mm
19:27 18.8 °F /  -7.3 °C 13.2 °F /  -10.4 °C 1008.4 in /  34144.4 hPa WSW 12.9 mph /  20.8 km/h 29.0 mph /  46.7 km/h 70 % 0.0 in /  0 mm
19:32 18.5 °F /  -7.5 °C 13.4 °F /  -10.3 °C 1008.4 in /  34144.4 hPa West 14.5 mph /  23.3 km/h 38.6 mph /  62.1 km/h 72 % 0.0 in /  0 mm
19:37 18.3 °F /  -7.6 °C 13.4 °F /  -10.3 °C 1008.4 in /  34144.4 hPa WSW 16.1 mph /  25.9 km/h 38.6 mph /  62.1 km/h 73 % 0.0 in /  0 mm
19:42 18.2 °F /  -7.7 °C 13.3 °F /  -10.4 °C 1008.0 in /  34130.9 hPa WSW 6.4 mph /  10.3 km/h 38.6 mph /  62.1 km/h 73 % 0.0 in /  0 mm
19:47 18.3 °F /  -7.6 °C 13.0 °F /  -10.6 °C 1008.0 in /  34130.9 hPa WSW 19.3 mph /  31.1 km/h 32.2 mph /  51.8 km/h 71 % 0.0 in /  0 mm
19:52 18.5 °F /  -7.5 °C 12.9 °F /  -10.6 °C 1008.0 in /  34130.9 hPa WSW 22.5 mph /  36.2 km/h 27.4 mph /  44.1 km/h 70 % 0.0 in /  0 mm
19:57 18.6 °F /  -7.4 °C 13.0 °F /  -10.6 °C 1008.0 in /  34130.9 hPa West 24.1 mph /  38.8 km/h 37.0 mph /  59.5 km/h 70 % 0.0 in /  0 mm
20:02 18.5 °F /  -7.5 °C 12.9 °F /  -10.6 °C 1008.0 in /  34130.9 hPa SW 11.3 mph /  18.2 km/h 37.0 mph /  59.5 km/h 70 % 0.0 in /  0 mm
20:07 18.4 °F /  -7.6 °C 12.8 °F /  -10.7 °C 1007.7 in /  34120.7 hPa SW 19.3 mph /  31.1 km/h 37.0 mph /  59.5 km/h 70 % 0.0 in /  0 mm
20:12 18.4 °F /  -7.6 °C 12.8 °F /  -10.7 °C 1007.7 in /  34120.7 hPa SW 20.9 mph /  33.6 km/h 32.2 mph /  51.8 km/h 70 % 0.0 in /  0 mm
20:17 18.4 °F /  -7.6 °C 12.8 °F /  -10.7 °C 1007.7 in /  34120.7 hPa SW 22.5 mph /  36.2 km/h 30.6 mph /  49.2 km/h 70 % 0.0 in /  0 mm
20:22 18.4 °F /  -7.6 °C 12.8 °F /  -10.7 °C 1007.7 in /  34120.7 hPa WSW 17.7 mph /  28.5 km/h 24.1 mph /  38.8 km/h 70 % 0.0 in /  0 mm
20:27 18.4 °F /  -7.6 °C 12.6 °F /  -10.8 °C 1007.3 in /  34107.2 hPa SW 14.5 mph /  23.3 km/h 24.1 mph /  38.8 km/h 69 % 0.0 in /  0 mm
20:32 18.4 °F /  -7.6 °C 12.6 °F /  -10.8 °C 1007.3 in /  34107.2 hPa SW 24.1 mph /  38.8 km/h 30.6 mph /  49.2 km/h 69 % 0.0 in /  0 mm
20:37 18.5 °F /  -7.5 °C 12.7 °F /  -10.7 °C 1007.3 in /  34107.2 hPa SW 16.1 mph /  25.9 km/h 35.4 mph /  57 km/h 69 % 0.0 in /  0 mm
20:42 18.4 °F /  -7.6 °C 12.8 °F /  -10.7 °C 1007.3 in /  34107.2 hPa SW 20.9 mph /  33.6 km/h 35.4 mph /  57 km/h 70 % 0.0 in /  0 mm
20:47 18.3 °F /  -7.6 °C 13.0 °F /  -10.6 °C 1007.3 in /  34107.2 hPa SW 16.1 mph /  25.9 km/h 37.0 mph /  59.5 km/h 71 % 0.0 in /  0 mm
20:52 18.1 °F /  -7.7 °C 13.0 °F /  -10.6 °C 1007.3 in /  34107.2 hPa SSW 22.5 mph /  36.2 km/h 37.0 mph /  59.5 km/h 72 % 0.0 in /  0 mm
20:57 18.0 °F /  -7.8 °C 12.9 °F /  -10.6 °C 1007.3 in /  34107.2 hPa SW 16.1 mph /  25.9 km/h 33.8 mph /  54.4 km/h 72 % 0.0 in /  0 mm
21:02 18.0 °F /  -7.8 °C 12.9 °F /  -10.6 °C 1007.3 in /  34107.2 hPa WSW 16.1 mph /  25.9 km/h 33.8 mph /  54.4 km/h 72 % 0.0 in /  0 mm
21:07 18.1 °F /  -7.7 °C 13.0 °F /  -10.6 °C 1007.3 in /  34107.2 hPa WSW 20.9 mph /  33.6 km/h 33.8 mph /  54.4 km/h 72 % 0.0 in /  0 mm
21:12 18.0 °F /  -7.8 °C 12.9 °F /  -10.6 °C 1007.0 in /  34097 hPa SSW 12.9 mph /  20.8 km/h 33.8 mph /  54.4 km/h 72 % 0.0 in /  0 mm
21:17 18.0 °F /  -7.8 °C 12.9 °F /  -10.6 °C 1007.0 in /  34097 hPa SW 20.9 mph /  33.6 km/h 33.8 mph /  54.4 km/h 72 % 0.0 in /  0 mm
21:22 18.0 °F /  -7.8 °C 12.9 °F /  -10.6 °C 1007.0 in /  34097 hPa SW 12.9 mph /  20.8 km/h 27.4 mph /  44.1 km/h 72 % 0.0 in /  0 mm
21:27 18.0 °F /  -7.8 °C 12.7 °F /  -10.7 °C 1007.0 in /  34097 hPa SW 14.5 mph /  23.3 km/h 24.1 mph /  38.8 km/h 71 % 0.0 in /  0 mm
21:32 18.1 °F /  -7.7 °C 12.8 °F /  -10.7 °C 1007.0 in /  34097 hPa WSW 19.3 mph /  31.1 km/h 25.7 mph /  41.4 km/h 71 % 0.0 in /  0 mm
21:37 18.1 °F /  -7.7 °C 12.8 °F /  -10.7 °C 1006.7 in /  34086.9 hPa SW 14.5 mph /  23.3 km/h 25.7 mph /  41.4 km/h 71 % 0.0 in /  0 mm
21:42 18.0 °F /  -7.8 °C 12.9 °F /  -10.6 °C 1006.7 in /  34086.9 hPa SW 33.8 mph /  54.4 km/h 33.8 mph /  54.4 km/h 72 % 0.0 in /  0 mm
21:47 17.9 °F /  -7.8 °C 13.0 °F /  -10.6 °C 1006.7 in /  34086.9 hPa SW 16.1 mph /  25.9 km/h 40.2 mph /  64.7 km/h 73 % 0.0 in /  0 mm
21:52 17.7 °F /  -7.9 °C 13.0 °F /  -10.6 °C 1006.7 in /  34086.9 hPa SW 27.4 mph /  44.1 km/h 40.2 mph /  64.7 km/h 74 % 0.0 in /  0 mm
21:57 17.4 °F /  -8.1 °C 12.9 °F /  -10.6 °C 1006.7 in /  34086.9 hPa SW 29.0 mph /  46.7 km/h 40.2 mph /  64.7 km/h 75 % 0.0 in /  0 mm
22:02 17.3 °F /  -8.2 °C 13.0 °F /  -10.6 °C 1006.7 in /  34086.9 hPa SW 17.7 mph /  28.5 km/h 35.4 mph /  57 km/h 76 % 0.0 in /  0 mm
22:07 17.2 °F /  -8.2 °C 13.1 °F /  -10.5 °C 1006.7 in /  34086.9 hPa SW 11.3 mph /  18.2 km/h 35.4 mph /  57 km/h 77 % 0.0 in /  0 mm
22:12 17.2 °F /  -8.2 °C 13.1 °F /  -10.5 °C 1006.7 in /  34086.9 hPa SSW 6.4 mph /  10.3 km/h 29.0 mph /  46.7 km/h 77 % 0.0 in /  0 mm
22:17 17.2 °F /  -8.2 °C 13.1 °F /  -10.5 °C 1006.7 in /  34086.9 hPa SW 16.1 mph /  25.9 km/h 27.4 mph /  44.1 km/h 77 % 0.0 in /  0 mm
22:27 17.1 °F /  -8.3 °C 13.2 °F /  -10.4 °C 1006.3 in /  34073.3 hPa SSW 11.3 mph /  18.2 km/h 24.1 mph /  38.8 km/h 78 % 0.0 in /  0 mm
22:32 16.9 °F /  -8.4 °C 13.2 °F /  -10.4 °C 1006.3 in /  34073.3 hPa SW 16.1 mph /  25.9 km/h 25.7 mph /  41.4 km/h 79 % 0.0 in /  0 mm
22:37 16.7 °F /  -8.5 °C 13.2 °F /  -10.4 °C 1006.3 in /  34073.3 hPa WSW 6.4 mph /  10.3 km/h 29.0 mph /  46.7 km/h 80 % 0.0 in /  0 mm
22:42 16.3 °F /  -8.7 °C 13.4 °F /  -10.3 °C 1006.3 in /  34073.3 hPa SW 22.5 mph /  36.2 km/h 29.0 mph /  46.7 km/h 83 % 0.0 in /  0 mm
22:52 15.8 °F /  -9 °C 13.5 °F /  -10.3 °C 1006.0 in /  34063.2 hPa SSW 8.0 mph /  12.9 km/h 29.0 mph /  46.7 km/h 86 % 0.0 in /  0 mm
22:57 15.6 °F /  -9.1 °C 13.6 °F /  -10.2 °C 1005.6 in /  34049.6 hPa SW 16.1 mph /  25.9 km/h 27.4 mph /  44.1 km/h 88 % 0.0 in /  0 mm
23:02 15.6 °F /  -9.1 °C 13.6 °F /  -10.2 °C 1005.6 in /  34049.6 hPa SSW 12.9 mph /  20.8 km/h 27.4 mph /  44.1 km/h 88 % 0.0 in /  0 mm
23:07 15.5 °F /  -9.2 °C 13.5 °F /  -10.3 °C 1005.3 in /  34039.5 hPa SW 12.9 mph /  20.8 km/h 27.4 mph /  44.1 km/h 88 % 0.0 in /  0 mm
23:12 15.6 °F /  -9.1 °C 13.4 °F /  -10.3 °C 1005.3 in /  34039.5 hPa SW 8.0 mph /  12.9 km/h 25.7 mph /  41.4 km/h 87 % 0.0 in /  0 mm
23:17 15.7 °F /  -9.1 °C 13.5 °F /  -10.3 °C 1005.3 in /  34039.5 hPa SW 14.5 mph /  23.3 km/h 24.1 mph /  38.8 km/h 87 % 0.0 in /  0 mm
23:22 15.7 °F /  -9.1 °C 13.5 °F /  -10.3 °C 1005.0 in /  34029.3 hPa SW 9.7 mph /  15.6 km/h 20.9 mph /  33.6 km/h 87 % 0.0 in /  0 mm
23:27 15.7 °F /  -9.1 °C 13.4 °F /  -10.3 °C 1005.0 in /  34029.3 hPa SW 19.3 mph /  31.1 km/h 20.9 mph /  33.6 km/h 86 % 0.0 in /  0 mm
23:32 15.8 °F /  -9 °C 13.5 °F /  -10.3 °C 1005.0 in /  34029.3 hPa SW 11.3 mph /  18.2 km/h 20.9 mph /  33.6 km/h 86 % 0.0 in /  0 mm
23:37 15.9 °F /  -8.9 °C 13.4 °F /  -10.3 °C 1005.0 in /  34029.3 hPa SW 12.9 mph /  20.8 km/h 19.3 mph /  31.1 km/h 85 % 0.0 in /  0 mm
23:42 16.0 °F /  -8.9 °C 13.3 °F /  -10.4 °C 1005.0 in /  34029.3 hPa SSW 11.3 mph /  18.2 km/h 20.9 mph /  33.6 km/h 84 % 0.0 in /  0 mm
23:47 16.2 °F /  -8.8 °C 13.3 °F /  -10.4 °C 1005.0 in /  34029.3 hPa SW 19.3 mph /  31.1 km/h 24.1 mph /  38.8 km/h 83 % 0.0 in /  0 mm
23:52 16.2 °F /  -8.8 °C 13.3 °F /  -10.4 °C 1005.0 in /  34029.3 hPa SW 16.1 mph /  25.9 km/h 27.4 mph /  44.1 km/h 83 % 0.0 in /  0 mm
23:57 16.1 °F /  -8.8 °C 13.2 °F /  -10.4 °C 1004.6 in /  34015.8 hPa SW 11.3 mph /  18.2 km/h 27.4 mph /  44.1 km/h 83 % 0.0 in /  0 mm
Meteo18
Compliments of Weather Underground - 4 mb

Script developed by  Jim McMurry - jmcmurry@mwt.net Adapted for the template by  Wim van der Kuil - Leuven-Template.eu

You find our weather info also at:

European Weather Network

Weather Underground

Equipment we use:

Weather-station
Davis Vue

Weather-program
Meteobridge

Weather-server
Raspberry PI 2 B+

Provider
1 and 1

Davis Vue

Meteobridge

Raspberry PI 2 B+

1 and 1